sensor_id;sensor_type;location;lat;lon;timestamp;pressure;altitude;pressure_sealevel;temperature;humidity
79250;BME280;68679;51.030;7.584;2023-10-09T00:00:59;99493.97;;;12.77;70.41
79250;BME280;68679;51.030;7.584;2023-10-09T00:03:29;99500.31;;;12.76;70.53
79250;BME280;68679;51.030;7.584;2023-10-09T00:05:55;99488.75;;;12.72;70.28
79250;BME280;68679;51.030;7.584;2023-10-09T00:08:21;99492.97;;;12.68;70.61
79250;BME280;68679;51.030;7.584;2023-10-09T00:10:56;99491.41;;;12.67;70.52
79250;BME280;68679;51.030;7.584;2023-10-09T00:13:24;99499.56;;;12.65;70.83
79250;BME280;68679;51.030;7.584;2023-10-09T00:15:57;99493.53;;;12.65;70.65
79250;BME280;68679;51.030;7.584;2023-10-09T00:18:26;99498.28;;;12.63;70.48
79250;BME280;68679;51.030;7.584;2023-10-09T00:20:56;99495.41;;;12.59;70.77
79250;BME280;68679;51.030;7.584;2023-10-09T00:23:47;99488.06;;;12.56;70.61
79250;BME280;68679;51.030;7.584;2023-10-09T00:26:18;99497.56;;;12.52;70.65
79250;BME280;68679;51.030;7.584;2023-10-09T00:28:46;99503.34;;;12.49;70.56
79250;BME280;68679;51.030;7.584;2023-10-09T00:31:15;99493.88;;;12.48;70.60
79250;BME280;68679;51.030;7.584;2023-10-09T00:33:44;99498.66;;;12.46;70.80
79250;BME280;68679;51.030;7.584;2023-10-09T00:36:10;99490.25;;;12.44;70.96
79250;BME280;68679;51.030;7.584;2023-10-09T00:38:36;99482.59;;;12.42;70.68
79250;BME280;68679;51.030;7.584;2023-10-09T00:41:05;99483.94;;;12.40;70.67
79250;BME280;68679;51.030;7.584;2023-10-09T00:43:33;99478.97;;;12.38;70.75
79250;BME280;68679;51.030;7.584;2023-10-09T00:46:02;99478.97;;;12.38;70.43
79250;BME280;68679;51.030;7.584;2023-10-09T00:48:34;99490.78;;;12.35;70.48
79250;BME280;68679;51.030;7.584;2023-10-09T00:51:06;99482.91;;;12.35;70.48
79250;BME280;68679;51.030;7.584;2023-10-09T00:53:46;99483.19;;;12.34;70.73
79250;BME280;68679;51.030;7.584;2023-10-09T00:56:20;99476.34;;;12.33;70.63
79250;BME280;68679;51.030;7.584;2023-10-09T00:58:52;99472.94;;;12.32;70.80
79250;BME280;68679;51.030;7.584;2023-10-09T01:01:21;99466.91;;;12.32;71.01
79250;BME280;68679;51.030;7.584;2023-10-09T01:03:52;99457.16;;;12.32;70.87
79250;BME280;68679;51.030;7.584;2023-10-09T01:06:18;99463.75;;;12.30;71.05
79250;BME280;68679;51.030;7.584;2023-10-09T01:08:46;99467.69;;;12.32;70.81
79250;BME280;68679;51.030;7.584;2023-10-09T01:11:30;99466.09;;;12.31;71.18
79250;BME280;68679;51.030;7.584;2023-10-09T01:13:56;99440.84;;;12.30;71.12
79250;BME280;68679;51.030;7.584;2023-10-09T01:16:33;99465.59;;;12.29;71.55
79250;BME280;68679;51.030;7.584;2023-10-09T01:18:59;99460.81;;;12.31;71.08
79250;BME280;68679;51.030;7.584;2023-10-09T01:21:25;99454.00;;;12.30;71.05
79250;BME280;68679;51.030;7.584;2023-10-09T01:23:52;99440.84;;;12.30;71.15
79250;BME280;68679;51.030;7.584;2023-10-09T01:26:32;99442.41;;;12.31;71.22
79250;BME280;68679;51.030;7.584;2023-10-09T01:29:08;99445.31;;;12.30;71.62
79250;BME280;68679;51.030;7.584;2023-10-09T01:31:52;99431.41;;;12.29;71.14
79250;BME280;68679;51.030;7.584;2023-10-09T01:34:24;99427.47;;;12.27;71.34
79250;BME280;68679;51.030;7.584;2023-10-09T01:36:51;99427.47;;;12.27;71.30
79250;BME280;68679;51.030;7.584;2023-10-09T01:39:20;99432.22;;;12.25;71.77
79250;BME280;68679;51.030;7.584;2023-10-09T01:41:51;99433.00;;;12.25;71.50
79250;BME280;68679;51.030;7.584;2023-10-09T01:44:32;99422.25;;;12.22;72.17
79250;BME280;68679;51.030;7.584;2023-10-09T01:47:02;99416.44;;;12.25;71.99
79250;BME280;68679;51.030;7.584;2023-10-09T01:49:34;99409.31;;;12.25;71.92
79250;BME280;68679;51.030;7.584;2023-10-09T01:52:01;99409.31;;;12.25;71.57
79250;BME280;68679;51.030;7.584;2023-10-09T01:54:39;99405.13;;;12.24;71.55
79250;BME280;68679;51.030;7.584;2023-10-09T01:57:11;99406.97;;;12.24;71.47
79250;BME280;68679;51.030;7.584;2023-10-09T01:59:39;99408.59;;;12.20;72.00
79250;BME280;68679;51.030;7.584;2023-10-09T02:02:08;99419.13;;;12.20;71.97
79250;BME280;68679;51.030;7.584;2023-10-09T02:05:02;99407.78;;;12.19;71.51
79250;BME280;68679;51.030;7.584;2023-10-09T02:07:40;99400.97;;;12.18;71.81
79250;BME280;68679;51.030;7.584;2023-10-09T02:10:14;99406.75;;;12.20;71.74
79250;BME280;68679;51.030;7.584;2023-10-09T02:12:48;99400.19;;;12.18;71.65
79250;BME280;68679;51.030;7.584;2023-10-09T02:15:30;99406.78;;;12.15;71.92
79250;BME280;68679;51.030;7.584;2023-10-09T02:18:17;99411.00;;;12.11;71.89
79250;BME280;68679;51.030;7.584;2023-10-09T02:20:48;99407.06;;;12.08;71.74
79250;BME280;68679;51.030;7.584;2023-10-09T02:23:26;99417.59;;;12.08;71.95
79250;BME280;68679;51.030;7.584;2023-10-09T02:25:59;99424.69;;;12.08;71.59
79250;BME280;68679;51.030;7.584;2023-10-09T02:28:27;99429.41;;;12.06;71.95
79250;BME280;68679;51.030;7.584;2023-10-09T02:30:58;99430.47;;;12.05;72.26
79250;BME280;68679;51.030;7.584;2023-10-09T02:33:26;99416.03;;;12.07;71.76
79250;BME280;68679;51.030;7.584;2023-10-09T02:35:54;99414.72;;;12.05;71.89
79250;BME280;68679;51.030;7.584;2023-10-09T02:38:20;99421.31;;;12.02;71.61
79250;BME280;68679;51.030;7.584;2023-10-09T02:40:51;99415.78;;;11.99;71.46
79250;BME280;68679;51.030;7.584;2023-10-09T02:43:31;99410.31;;;11.95;71.79
79250;BME280;68679;51.030;7.584;2023-10-09T02:46:15;99417.91;;;11.97;71.80
79250;BME280;68679;51.030;7.584;2023-10-09T02:48:45;99421.59;;;11.96;71.56
79250;BME280;68679;51.030;7.584;2023-10-09T02:51:24;99415.31;;;11.92;71.83
79250;BME280;68679;51.030;7.584;2023-10-09T02:53:57;99411.09;;;11.91;71.48
79250;BME280;68679;51.030;7.584;2023-10-09T02:56:25;99407.16;;;11.88;71.55
79250;BME280;68679;51.030;7.584;2023-10-09T02:59:07;99411.41;;;11.84;71.77
79250;BME280;68679;51.030;7.584;2023-10-09T03:01:37;99408.25;;;11.82;71.52
79250;BME280;68679;51.030;7.584;2023-10-09T03:04:04;99408.47;;;11.80;71.41
79250;BME280;68679;51.030;7.584;2023-10-09T03:06:31;99400.59;;;11.80;71.37
79250;BME280;68679;51.030;7.584;2023-10-09T03:08:58;99395.63;;;11.79;71.66
79250;BME280;68679;51.030;7.584;2023-10-09T03:11:23;99389.59;;;11.78;71.22
79250;BME280;68679;51.030;7.584;2023-10-09T03:13:52;99391.94;;;11.75;71.35
79250;BME280;68679;51.030;7.584;2023-10-09T03:16:18;99388.81;;;11.73;71.57
79250;BME280;68679;51.030;7.584;2023-10-09T03:18:47;99397.75;;;11.72;71.22
79250;BME280;68679;51.030;7.584;2023-10-09T03:21:13;99398.78;;;11.71;71.23
79250;BME280;68679;51.030;7.584;2023-10-09T03:23:40;99388.06;;;11.67;71.61
79250;BME280;68679;51.030;7.584;2023-10-09T03:26:05;99391.47;;;11.68;71.51
79250;BME280;68679;51.030;7.584;2023-10-09T03:28:33;99393.31;;;11.67;71.24
79250;BME280;68679;51.030;7.584;2023-10-09T03:30:58;99387.00;;;11.63;71.30
79250;BME280;68679;51.030;7.584;2023-10-09T03:33:27;99389.91;;;11.62;71.25
79250;BME280;68679;51.030;7.584;2023-10-09T03:35:53;99401.47;;;11.61;71.42
79250;BME280;68679;51.030;7.584;2023-10-09T03:38:18;99390.19;;;11.60;71.16
79250;BME280;68679;51.030;7.584;2023-10-09T03:40:44;99400.69;;;11.60;70.97
79250;BME280;68679;51.030;7.584;2023-10-09T03:43:13;99392.28;;;11.58;71.63
79250;BME280;68679;51.030;7.584;2023-10-09T03:45:39;99393.06;;;11.59;71.37
79250;BME280;68679;51.030;7.584;2023-10-09T03:48:10;99390.72;;;11.57;71.17
79250;BME280;68679;51.030;7.584;2023-10-09T03:51:02;99393.09;;;11.53;71.42
79250;BME280;68679;51.030;7.584;2023-10-09T03:53:35;99383.38;;;11.54;71.33
79250;BME280;68679;51.030;7.584;2023-10-09T03:56:08;99379.69;;;11.55;71.22
79250;BME280;68679;51.030;7.584;2023-10-09T03:58:40;99385.22;;;11.53;71.39
79250;BME280;68679;51.030;7.584;2023-10-09T04:01:14;99373.38;;;11.56;71.57
79250;BME280;68679;51.030;7.584;2023-10-09T04:04:03;99375.72;;;11.58;71.18
79250;BME280;68679;51.030;7.584;2023-10-09T04:06:31;99376.28;;;11.54;71.34
79250;BME280;68679;51.030;7.584;2023-10-09T04:09:04;99383.88;;;11.56;71.41
79250;BME280;68679;51.030;7.584;2023-10-09T04:11:41;99381.53;;;11.54;71.09
79250;BME280;68679;51.030;7.584;2023-10-09T04:14:08;99389.69;;;11.53;71.25
79250;BME280;68679;51.030;7.584;2023-10-09T04:16:39;99384.44;;;11.53;71.60
79250;BME280;68679;51.030;7.584;2023-10-09T04:19:17;99382.84;;;11.52;71.61
79250;BME280;68679;51.030;7.584;2023-10-09T04:21:47;99389.41;;;11.54;71.71
79250;BME280;68679;51.030;7.584;2023-10-09T04:24:13;99378.38;;;11.52;71.70
79250;BME280;68679;51.030;7.584;2023-10-09T04:26:43;99384.44;;;11.53;71.59
79250;BME280;68679;51.030;7.584;2023-10-09T04:29:16;99371.56;;;11.51;71.49
79250;BME280;68679;51.030;7.584;2023-10-09T04:31:54;99378.66;;;11.51;71.58
79250;BME280;68679;51.030;7.584;2023-10-09T04:34:23;99372.63;;;11.50;71.15
79250;BME280;68679;51.030;7.584;2023-10-09T04:36:55;99368.41;;;11.49;71.50
79250;BME280;68679;51.030;7.584;2023-10-09T04:39:42;99369.75;;;11.47;71.52
79250;BME280;68679;51.030;7.584;2023-10-09T04:42:15;99370.78;;;11.46;71.28
79250;BME280;68679;51.030;7.584;2023-10-09T04:44:50;99372.91;;;11.44;71.31
79250;BME280;68679;51.030;7.584;2023-10-09T04:50:06;99350.59;;;11.41;71.44
79250;BME280;68679;51.030;7.584;2023-10-09T04:52:40;99340.34;;;11.45;71.54
79250;BME280;68679;51.030;7.584;2023-10-09T04:55:06;99331.16;;;11.42;71.87
79250;BME280;68679;51.030;7.584;2023-10-09T04:57:36;99362.91;;;11.46;71.86
79250;BME280;68679;51.030;7.584;2023-10-09T05:00:14;99365.59;;;11.36;71.88
79250;BME280;68679;51.030;7.584;2023-10-09T05:02:56;99352.69;;;11.39;72.03
79250;BME280;68679;51.030;7.584;2023-10-09T05:05:23;99359.25;;;11.42;72.14
79250;BME280;68679;51.030;7.584;2023-10-09T05:08:11;99350.84;;;11.45;71.88
79250;BME280;68679;51.030;7.584;2023-10-09T05:11:00;99349.00;;;11.45;72.00
79250;BME280;68679;51.030;7.584;2023-10-09T05:16:07;99354.00;;;11.47;72.03
79250;BME280;68679;51.030;7.584;2023-10-09T05:18:44;99365.28;;;11.47;71.66
79250;BME280;68679;51.030;7.584;2023-10-09T05:21:11;99359.50;;;11.45;72.07
79250;BME280;68679;51.030;7.584;2023-10-09T05:23:55;99350.56;;;11.46;71.94
79250;BME280;68679;51.030;7.584;2023-10-09T05:26:40;99355.03;;;11.46;71.86
79250;BME280;68679;51.030;7.584;2023-10-09T05:29:11;99361.63;;;11.43;71.64
79250;BME280;68679;51.030;7.584;2023-10-09T05:31:55;99362.91;;;11.46;71.96
79250;BME280;68679;51.030;7.584;2023-10-09T05:34:22;99359.78;;;11.44;71.77
79250;BME280;68679;51.030;7.584;2023-10-09T05:36:49;99362.38;;;11.49;72.04
79250;BME280;68679;51.030;7.584;2023-10-09T05:39:14;99363.69;;;11.46;71.97
79250;BME280;68679;51.030;7.584;2023-10-09T05:42:09;99362.91;;;11.46;72.24
79250;BME280;68679;51.030;7.584;2023-10-09T05:44:43;99360.28;;;11.46;71.96
79250;BME280;68679;51.030;7.584;2023-10-09T05:47:34;99354.53;;;11.44;72.56
79250;BME280;68679;51.030;7.584;2023-10-09T05:50:00;99357.66;;;11.46;72.30
79250;BME280;68679;51.030;7.584;2023-10-09T05:52:48;99364.75;;;11.45;71.98
79250;BME280;68679;51.030;7.584;2023-10-09T05:55:17;99372.91;;;11.44;72.26
79250;BME280;68679;51.030;7.584;2023-10-09T05:58:00;99365.81;;;11.44;72.33
79250;BME280;68679;51.030;7.584;2023-10-09T06:00:44;99354.00;;;11.42;72.57
79250;BME280;68679;51.030;7.584;2023-10-09T06:03:28;99361.63;;;11.43;72.11
79250;BME280;68679;51.030;7.584;2023-10-09T06:06:12;99357.66;;;11.46;72.14
79250;BME280;68679;51.030;7.584;2023-10-09T06:08:58;99362.13;;;11.45;72.28
79250;BME280;68679;51.030;7.584;2023-10-09T06:11:38;99370.00;;;11.45;72.49
79250;BME280;68679;51.030;7.584;2023-10-09T06:14:04;99378.13;;;11.49;72.25
79250;BME280;68679;51.030;7.584;2023-10-09T06:16:39;99394.16;;;11.47;72.72
79250;BME280;68679;51.030;7.584;2023-10-09T06:19:07;99393.13;;;11.48;72.66
79250;BME280;68679;51.030;7.584;2023-10-09T06:21:34;99388.38;;;11.50;72.61
79250;BME280;68679;51.030;7.584;2023-10-09T06:24:21;99390.47;;;11.53;72.19
79250;BME280;68679;51.030;7.584;2023-10-09T06:26:58;99402.81;;;11.53;72.65
79250;BME280;68679;51.030;7.584;2023-10-09T06:29:30;99409.63;;;11.54;72.45
79250;BME280;68679;51.030;7.584;2023-10-09T06:32:01;99396.50;;;11.54;72.75
79250;BME280;68679;51.030;7.584;2023-10-09T06:34:43;99403.06;;;11.57;72.83
79250;BME280;68679;51.030;7.584;2023-10-09T06:37:10;99392.03;;;11.60;72.65
79250;BME280;68679;51.030;7.584;2023-10-09T06:39:56;99392.81;;;11.60;72.60
79250;BME280;68679;51.030;7.584;2023-10-09T06:42:26;99395.94;;;11.62;73.02
79250;BME280;68679;51.030;7.584;2023-10-09T06:45:10;99400.13;;;11.63;72.73
79250;BME280;68679;51.030;7.584;2023-10-09T06:47:57;99413.00;;;11.65;73.09
79250;BME280;68679;51.030;7.584;2023-10-09T06:50:55;99421.13;;;11.68;72.83
79250;BME280;68679;51.030;7.584;2023-10-09T06:53:33;99424.28;;;11.70;73.34
79250;BME280;68679;51.030;7.584;2023-10-09T06:56:17;99438.72;;;11.73;73.03
79250;BME280;68679;51.030;7.584;2023-10-09T06:58:55;99437.41;;;11.75;73.41
79250;BME280;68679;51.030;7.584;2023-10-09T07:01:24;99440.28;;;11.79;72.84
79250;BME280;68679;51.030;7.584;2023-10-09T07:04:08;99438.19;;;11.81;73.36
79250;BME280;68679;51.030;7.584;2023-10-09T07:06:52;99450.53;;;11.86;73.44
79250;BME280;68679;51.030;7.584;2023-10-09T07:09:18;99448.16;;;11.89;72.95
79250;BME280;68679;51.030;7.584;2023-10-09T07:11:51;99461.25;;;11.94;72.74
79250;BME280;68679;51.030;7.584;2023-10-09T07:14:22;99449.44;;;11.97;73.06
79250;BME280;68679;51.030;7.584;2023-10-09T07:17:06;99446.81;;;12.02;72.40
79250;BME280;68679;51.030;7.584;2023-10-09T07:19:44;99446.75;;;12.07;72.45
79250;BME280;68679;51.030;7.584;2023-10-09T07:22:16;99452.28;;;12.11;73.02
79250;BME280;68679;51.030;7.584;2023-10-09T07:24:57;99457.00;;;12.14;72.23
79250;BME280;68679;51.030;7.584;2023-10-09T07:27:27;99445.66;;;12.18;72.96
79250;BME280;68679;51.030;7.584;2023-10-09T07:30:13;99439.59;;;12.23;72.07
79250;BME280;68679;51.030;7.584;2023-10-09T07:33:03;99443.25;;;12.27;72.62
79250;BME280;68679;51.030;7.584;2023-10-09T07:35:38;99430.13;;;12.27;72.33
79250;BME280;68679;51.030;7.584;2023-10-09T07:38:23;99419.56;;;12.32;72.79
79250;BME280;68679;51.030;7.584;2023-10-09T07:40:54;99420.06;;;12.34;72.38
79250;BME280;68679;51.030;7.584;2023-10-09T07:43:33;99425.56;;;12.38;73.07
79250;BME280;68679;51.030;7.584;2023-10-09T07:46:09;99414.22;;;12.42;72.94
79250;BME280;68679;51.030;7.584;2023-10-09T07:48:57;99431.03;;;12.46;72.90
79250;BME280;68679;51.030;7.584;2023-10-09T07:51:23;99434.72;;;12.50;73.09
79250;BME280;68679;51.030;7.584;2023-10-09T07:53:56;99440.97;;;12.54;72.63
79250;BME280;68679;51.030;7.584;2023-10-09T07:56:25;99448.06;;;12.59;72.52
79250;BME280;68679;51.030;7.584;2023-10-09T07:58:55;99444.88;;;12.62;72.61
79250;BME280;68679;51.030;7.584;2023-10-09T08:01:25;99445.13;;;12.66;72.18
79250;BME280;68679;51.030;7.584;2023-10-09T08:03:54;99446.94;;;12.70;72.10
79250;BME280;68679;51.030;7.584;2023-10-09T08:06:26;99454.78;;;12.75;72.07
79250;BME280;68679;51.030;7.584;2023-10-09T08:09:03;99466.31;;;12.79;71.60
79250;BME280;68679;51.030;7.584;2023-10-09T08:11:37;99461.31;;;12.83;71.91
79250;BME280;68679;51.030;7.584;2023-10-09T08:14:06;99464.19;;;12.86;71.74
79250;BME280;68679;51.030;7.584;2023-10-09T08:16:47;99465.72;;;12.93;71.80
79250;BME280;68679;51.030;7.584;2023-10-09T08:19:13;99466.72;;;12.97;71.67
79250;BME280;68679;51.030;7.584;2023-10-09T08:21:56;99451.94;;;13.01;71.59
79250;BME280;68679;51.030;7.584;2023-10-09T08:24:40;99438.75;;;13.06;71.47
79250;BME280;68679;51.030;7.584;2023-10-09T08:27:07;99454.75;;;13.09;71.46
79250;BME280;68679;51.030;7.584;2023-10-09T08:29:51;99449.47;;;13.14;71.19
79250;BME280;68679;51.030;7.584;2023-10-09T08:32:36;99443.66;;;13.18;71.31
79250;BME280;68679;51.030;7.584;2023-10-09T08:35:06;99434.94;;;13.22;71.41
79250;BME280;68679;51.030;7.584;2023-10-09T08:37:50;99442.00;;;13.27;71.68
79250;BME280;68679;51.030;7.584;2023-10-09T08:40:16;99433.28;;;13.31;71.53
79250;BME280;68679;51.030;7.584;2023-10-09T08:42:52;99409.28;;;13.33;71.49
79250;BME280;68679;51.030;7.584;2023-10-09T08:45:21;99415.28;;;13.38;71.66
79250;BME280;68679;51.030;7.584;2023-10-09T08:47:53;99413.16;;;13.40;71.31
79250;BME280;68679;51.030;7.584;2023-10-09T08:50:20;99426.56;;;13.44;71.53
79250;BME280;68679;51.030;7.584;2023-10-09T08:52:48;99426.78;;;13.48;71.32
79250;BME280;68679;51.030;7.584;2023-10-09T08:55:14;99426.50;;;13.49;71.32
79250;BME280;68679;51.030;7.584;2023-10-09T08:57:42;99459.13;;;13.53;71.36
79250;BME280;68679;51.030;7.584;2023-10-09T09:00:16;99473.31;;;13.57;71.28
79250;BME280;68679;51.030;7.584;2023-10-09T09:02:46;99507.03;;;13.60;71.42
79250;BME280;68679;51.030;7.584;2023-10-09T09:05:21;99494.84;;;13.64;71.01
79250;BME280;68679;51.030;7.584;2023-10-09T09:07:47;99507.47;;;13.67;71.11
79250;BME280;68679;51.030;7.584;2023-10-09T09:10:15;99504.78;;;13.73;70.89
79250;BME280;68679;51.030;7.584;2023-10-09T09:12:47;99496.31;;;13.76;71.23
79250;BME280;68679;51.030;7.584;2023-10-09T09:15:18;99488.63;;;13.79;71.21
79250;BME280;68679;51.030;7.584;2023-10-09T09:17:46;99499.13;;;13.84;70.56
79250;BME280;68679;51.030;7.584;2023-10-09T09:20:24;99497.47;;;13.88;71.15
79250;BME280;68679;51.030;7.584;2023-10-09T09:22:55;99482.69;;;13.92;70.64
79250;BME280;68679;51.030;7.584;2023-10-09T09:25:24;99471.00;;;13.99;70.34
79250;BME280;68679;51.030;7.584;2023-10-09T09:27:50;99452.78;;;14.02;70.60
79250;BME280;68679;51.030;7.584;2023-10-09T09:30:26;99418.16;;;14.09;70.65
79250;BME280;68679;51.030;7.584;2023-10-09T09:33:00;99398.03;;;14.13;70.27
79250;BME280;68679;51.030;7.584;2023-10-09T09:35:56;99397.97;;;14.18;70.50
79250;BME280;68679;51.030;7.584;2023-10-09T09:38:23;99376.31;;;14.21;70.27
79250;BME280;68679;51.030;7.584;2023-10-09T09:40:51;99351.69;;;14.26;70.29
79250;BME280;68679;51.030;7.584;2023-10-09T09:43:20;99351.91;;;14.29;70.41
79250;BME280;68679;51.030;7.584;2023-10-09T09:45:47;99354.00;;;14.32;70.56
79250;BME280;68679;51.030;7.584;2023-10-09T09:48:15;99348.91;;;14.36;70.38
79250;BME280;68679;51.030;7.584;2023-10-09T09:50:42;99358.59;;;14.40;70.42
79250;BME280;68679;51.030;7.584;2023-10-09T09:53:12;99359.88;;;14.43;70.42
79250;BME280;68679;51.030;7.584;2023-10-09T09:55:44;99370.69;;;14.46;70.19
79250;BME280;68679;51.030;7.584;2023-10-09T09:58:18;99361.13;;;14.51;70.37
79250;BME280;68679;51.030;7.584;2023-10-09T10:00:50;99362.09;;;14.55;70.41
79250;BME280;68679;51.030;7.584;2023-10-09T10:03:22;99367.31;;;14.60;70.50
79250;BME280;68679;51.030;7.584;2023-10-09T10:05:50;99364.88;;;14.63;70.23
79250;BME280;68679;51.030;7.584;2023-10-09T10:08:17;99362.44;;;14.67;70.22
79250;BME280;68679;51.030;7.584;2023-10-09T10:10:45;99359.41;;;14.73;70.34
79250;BME280;68679;51.030;7.584;2023-10-09T10:16:08;99370.59;;;14.84;70.54
79250;BME280;68679;51.030;7.584;2023-10-09T10:18:59;99373.63;;;14.91;71.47
79250;BME280;68679;51.030;7.584;2023-10-09T10:21:29;99363.28;;;14.95;70.39
79250;BME280;68679;51.030;7.584;2023-10-09T10:27:16;99359.88;;;15.08;70.40
79250;BME280;68679;51.030;7.584;2023-10-09T10:33:00;99360.47;;;15.19;71.23
79250;BME280;68679;51.030;7.584;2023-10-09T10:35:34;99357.75;;;15.24;70.16
79250;BME280;68679;51.030;7.584;2023-10-09T10:38:29;99365.28;;;15.31;71.16
79250;BME280;68679;51.030;7.584;2023-10-09T10:41:14;99365.19;;;15.36;70.91
79250;BME280;68679;51.030;7.584;2023-10-09T10:43:46;99359.78;;;15.41;70.89
79250;BME280;68679;51.030;7.584;2023-10-09T10:46:18;99366.34;;;15.43;69.35
79250;BME280;68679;51.030;7.584;2023-10-09T10:48:56;99360.66;;;15.50;70.01
79250;BME280;68679;51.030;7.584;2023-10-09T10:51:28;99360.56;;;15.55;70.30
79250;BME280;68679;51.030;7.584;2023-10-09T10:54:06;99350.66;;;15.61;70.88
79250;BME280;68679;51.030;7.584;2023-10-09T10:57:00;99365.69;;;15.65;70.59
79250;BME280;68679;51.030;7.584;2023-10-09T10:59:39;99365.28;;;15.72;70.16
79250;BME280;68679;51.030;7.584;2023-10-09T11:02:11;99368.09;;;15.75;70.62
79250;BME280;68679;51.030;7.584;2023-10-09T11:04:37;99374.84;;;15.81;69.56
79250;BME280;68679;51.030;7.584;2023-10-09T11:07:09;99375.53;;;15.87;69.67
79250;BME280;68679;51.030;7.584;2023-10-09T11:09:54;99372.78;;;15.92;70.60
79250;BME280;68679;51.030;7.584;2023-10-09T11:12:30;99377.44;;;15.95;70.41
79250;BME280;68679;51.030;7.584;2023-10-09T11:15:11;99373.91;;;16.00;70.56
79250;BME280;68679;51.030;7.584;2023-10-09T11:18:01;99377.53;;;16.04;70.66
79250;BME280;68679;51.030;7.584;2023-10-09T11:20:34;99379.41;;;16.03;69.75
79250;BME280;68679;51.030;7.584;2023-10-09T11:23:01;99379.47;;;16.12;70.91
79250;BME280;68679;51.030;7.584;2023-10-09T11:25:37;99371.44;;;16.17;70.27
79250;BME280;68679;51.030;7.584;2023-10-09T11:28:15;99366.03;;;16.22;70.61
79250;BME280;68679;51.030;7.584;2023-10-09T11:30:53;99375.06;;;16.21;69.32
79250;BME280;68679;51.030;7.584;2023-10-09T11:33:20;99372.28;;;16.26;70.37
79250;BME280;68679;51.030;7.584;2023-10-09T11:35:56;99365.03;;;16.32;69.90
79250;BME280;68679;51.030;7.584;2023-10-09T11:38:23;99356.16;;;16.36;70.38
79250;BME280;68679;51.030;7.584;2023-10-09T11:40:49;99348.09;;;16.42;70.39
79250;BME280;68679;51.030;7.584;2023-10-09T11:43:47;99368.38;;;16.46;70.66
79250;BME280;68679;51.030;7.584;2023-10-09T11:46:16;99359.53;;;16.51;70.48
79250;BME280;68679;51.030;7.584;2023-10-09T11:49:06;99369.19;;;16.55;70.28
79250;BME280;68679;51.030;7.584;2023-10-09T11:51:41;99374.22;;;16.57;69.63
79250;BME280;68679;51.030;7.584;2023-10-09T11:54:30;99366.56;;;16.55;69.20
79250;BME280;68679;51.030;7.584;2023-10-09T11:56:57;99370.06;;;16.65;70.03
79250;BME280;68679;51.030;7.584;2023-10-09T11:59:23;99370.75;;;16.70;69.32
79250;BME280;68679;51.030;7.584;2023-10-09T12:01:49;99363.94;;;16.78;69.34
79250;BME280;68679;51.030;7.584;2023-10-09T12:04:18;99363.34;;;16.81;68.30
79250;BME280;68679;51.030;7.584;2023-10-09T12:06:44;99368.44;;;16.77;69.22
79250;BME280;68679;51.030;7.584;2023-10-09T12:09:09;99360.06;;;16.84;69.13
79250;BME280;68679;51.030;7.584;2023-10-09T12:11:42;99354.00;;;16.83;69.84
79250;BME280;68679;51.030;7.584;2023-10-09T12:14:07;99362.47;;;16.94;68.99
79250;BME280;68679;51.030;7.584;2023-10-09T12:16:33;99355.16;;;17.00;69.79
79250;BME280;68679;51.030;7.584;2023-10-09T12:18:58;99350.81;;;17.04;69.38
79250;BME280;68679;51.030;7.584;2023-10-09T12:21:24;99352.06;;;17.06;69.77
79250;BME280;68679;51.030;7.584;2023-10-09T12:23:53;99355.19;;;17.08;69.87
79250;BME280;68679;51.030;7.584;2023-10-09T12:26:22;99362.22;;;17.13;69.67
79250;BME280;68679;51.030;7.584;2023-10-09T12:28:47;99365.66;;;17.13;69.87
79250;BME280;68679;51.030;7.584;2023-10-09T12:31:15;99365.84;;;17.17;69.90
79250;BME280;68679;51.030;7.584;2023-10-09T12:33:41;99363.03;;;17.22;69.70
79250;BME280;68679;51.030;7.584;2023-10-09T12:36:11;99356.34;;;17.25;69.62
79250;BME280;68679;51.030;7.584;2023-10-09T12:38:43;99358.09;;;17.29;69.85
79250;BME280;68679;51.030;7.584;2023-10-09T12:41:11;99358.38;;;17.28;69.48
79250;BME280;68679;51.030;7.584;2023-10-09T12:43:52;99362.13;;;17.27;68.71
79250;BME280;68679;51.030;7.584;2023-10-09T12:46:18;99361.53;;;17.38;69.22
79250;BME280;68679;51.030;7.584;2023-10-09T12:48:54;99346.53;;;17.34;68.98
79250;BME280;68679;51.030;7.584;2023-10-09T12:51:21;99342.38;;;17.41;69.38
79250;BME280;68679;51.030;7.584;2023-10-09T12:53:51;99333.00;;;17.44;69.49
79250;BME280;68679;51.030;7.584;2023-10-09T12:56:26;99342.22;;;17.47;69.50
79250;BME280;68679;51.030;7.584;2023-10-09T12:59:04;99350.94;;;17.47;68.16
79250;BME280;68679;51.030;7.584;2023-10-09T13:01:39;99332.25;;;17.52;68.63
79250;BME280;68679;51.030;7.584;2023-10-09T13:04:12;99347.06;;;17.53;69.00
79250;BME280;68679;51.030;7.584;2023-10-09T13:06:41;99335.66;;;17.53;68.99
79250;BME280;68679;51.030;7.584;2023-10-09T13:09:14;99339.09;;;17.45;67.79
79250;BME280;68679;51.030;7.584;2023-10-09T13:11:40;99354.22;;;17.44;68.79
79250;BME280;68679;51.030;7.584;2023-10-09T13:14:09;99360.94;;;17.50;68.65
79250;BME280;68679;51.030;7.584;2023-10-09T13:16:45;99355.00;;;17.53;68.57
79250;BME280;68679;51.030;7.584;2023-10-09T13:19:12;99352.72;;;17.60;68.67
79250;BME280;68679;51.030;7.584;2023-10-09T13:21:38;99356.91;;;17.61;68.64
79250;BME280;68679;51.030;7.584;2023-10-09T13:24:07;99363.47;;;17.64;68.54
79250;BME280;68679;51.030;7.584;2023-10-09T13:26:43;99366.13;;;17.64;68.30
79250;BME280;68679;51.030;7.584;2023-10-09T13:29:16;99364.88;;;17.61;68.41
79250;BME280;68679;51.030;7.584;2023-10-09T13:31:47;99373.16;;;17.68;68.17
79250;BME280;68679;51.030;7.584;2023-10-09T13:34:13;99372.97;;;17.65;67.69
79250;BME280;68679;51.030;7.584;2023-10-09T13:36:42;99376.47;;;17.74;68.31
79250;BME280;68679;51.030;7.584;2023-10-09T13:39:20;99373.69;;;17.79;67.30
79250;BME280;68679;51.030;7.584;2023-10-09T13:41:56;99370.03;;;17.66;67.21
79250;BME280;68679;51.030;7.584;2023-10-09T13:44:30;99376.78;;;17.73;68.58
79250;BME280;68679;51.030;7.584;2023-10-09T13:46:57;99357.69;;;17.70;68.10